Time;durP1;ratioP1;P1;durP2;ratioP2;P2;SDS_P1;SDS_P2;PMS_P1;PMS_P2;Temp;Humidity;BMP_temperature;BMP_pressure;BME280_temperature;BME280_humidity;BME280_pressure;Samples;Min_cycle;Max_cycle;Signal;HPM_P1;HPM_P2
2022/07/18 00:01:15;;;;;;;4.95;2.33;;;18.00;50.90;;;;;;604584;236;26784;-65
2022/07/18 00:03:42;;;;;;;5.07;2.42;;;18.00;51.30;;;;;;601657;233;26623;-66
2022/07/18 00:06:09;;;;;;;3.90;2.40;;;18.00;50.80;;;;;;602138;236;26835;-66
2022/07/18 00:08:36;;;;;;;3.45;2.15;;;18.00;51.20;;;;;;604279;237;26591;-66
2022/07/18 00:11:03;;;;;;;7.00;2.30;;;18.10;50.90;;;;;;604609;238;26816;-66
2022/07/18 00:13:31;;;;;;;2.42;2.22;;;18.00;50.80;;;;;;605251;235;26628;-66
2022/07/18 00:15:58;;;;;;;3.60;2.50;;;18.00;50.90;;;;;;604616;237;26583;-66
2022/07/18 00:18:25;;;;;;;3.20;2.00;;;18.10;50.90;;;;;;609655;236;26832;-66
2022/07/18 00:20:52;;;;;;;3.20;1.90;;;18.10;50.80;;;;;;609881;236;26641;-66
2022/07/18 00:23:20;;;;;;;3.67;2.45;;;18.10;50.90;;;;;;602197;235;26653;-66
2022/07/18 00:25:47;;;;;;;3.97;2.33;;;18.20;50.80;;;;;;601702;238;26641;-66
2022/07/18 00:28:15;;;;;;;4.30;2.28;;;18.20;50.60;;;;;;601561;237;26680;-65
2022/07/18 00:30:43;;;;;;;2.42;1.92;;;18.20;50.60;;;;;;603065;237;26624;-65
2022/07/18 00:33:11;;;;;;;3.70;2.20;;;18.20;50.50;;;;;;602747;238;26661;-65
2022/07/18 00:35:39;;;;;;;3.08;2.50;;;18.20;50.50;;;;;;603972;235;26591;-65
2022/07/18 00:38:06;;;;;;;2.62;2.12;;;18.20;50.60;;;;;;610735;235;26580;-65
2022/07/18 00:40:33;;;;;;;4.72;2.15;;;18.20;50.50;;;;;;605527;236;26831;-65
2022/07/18 00:43:00;;;;;;;3.65;2.40;;;18.10;50.60;;;;;;602083;239;26598;-65
2022/07/18 00:45:27;;;;;;;3.03;2.15;;;18.10;50.70;;;;;;602848;236;26857;-65
2022/07/18 00:47:55;;;;;;;3.60;2.25;;;18.00;50.80;;;;;;605036;232;26626;-65
2022/07/18 00:50:22;;;;;;;4.43;2.20;;;18.00;50.90;;;;;;608715;236;27357;-65
2022/07/18 00:52:49;;;;;;;3.95;1.95;;;17.90;51.00;;;;;;609949;236;26700;-65
2022/07/18 00:55:16;;;;;;;2.72;1.85;;;17.90;51.10;;;;;;609296;235;27265;-65
2022/07/18 00:57:43;;;;;;;2.20;1.90;;;17.90;51.20;;;;;;604918;238;26594;-65
2022/07/18 01:02:46;;;;;;;3.00;1.62;;;17.80;51.60;;;;;;604786;238;26618;-65
2022/07/18 01:05:13;;;;;;;6.43;2.58;;;17.70;51.50;;;;;;605094;235;26945;-65
2022/07/18 01:07:40;;;;;;;2.28;1.90;;;17.70;51.60;;;;;;601563;238;26634;-65
2022/07/18 01:10:09;;;;;;;2.55;1.98;;;17.60;52.00;;;;;;601537;237;27366;-65
2022/07/18 01:12:36;;;;;;;4.07;2.03;;;17.60;52.00;;;;;;603634;236;26654;-65
2022/07/18 01:15:05;;;;;;;2.85;1.90;;;17.50;52.20;;;;;;606315;236;26624;-65
2022/07/18 01:17:32;;;;;;;2.20;1.77;;;17.50;52.20;;;;;;604622;238;26583;-65
2022/07/18 01:19:59;;;;;;;1.95;1.73;;;17.40;52.30;;;;;;602055;235;26848;-65
2022/07/18 01:22:26;;;;;;;2.47;1.83;;;17.40;52.40;;;;;;601496;239;26669;-65
2022/07/18 01:24:54;;;;;;;3.40;1.98;;;17.30;52.50;;;;;;601970;236;27351;-65
2022/07/18 01:27:22;;;;;;;1.92;1.83;;;17.20;52.60;;;;;;610015;235;26585;-65
2022/07/18 01:29:50;;;;;;;2.22;1.90;;;17.20;52.70;;;;;;609848;235;26634;-65
2022/07/18 01:32:17;;;;;;;2.35;1.92;;;17.20;52.70;;;;;;609625;235;26846;-65
2022/07/18 01:34:45;;;;;;;2.65;1.98;;;17.20;52.80;;;;;;609888;235;26605;-65
2022/07/18 01:37:15;;;;;;;2.55;1.70;;;17.00;53.20;;;;;;602743;235;26645;-64
2022/07/18 01:39:41;;;;;;;5.50;2.05;;;17.00;53.20;;;;;;601539;239;26631;-64
2022/07/18 01:42:08;;;;;;;4.05;1.80;;;16.90;53.50;;;;;;602788;236;26596;-64
2022/07/18 01:44:35;;;;;;;2.03;1.80;;;16.90;53.80;;;;;;602972;236;26844;-65
2022/07/18 01:47:02;;;;;;;1.83;1.65;;;16.90;53.90;;;;;;609151;235;26634;-65
2022/07/18 01:49:30;;;;;;;2.10;1.77;;;16.80;54.00;;;;;;606311;235;26846;-65
2022/07/18 01:51:57;;;;;;;2.25;1.70;;;16.70;54.20;;;;;;605162;237;26652;-65
2022/07/18 01:54:24;;;;;;;4.25;1.60;;;16.70;54.40;;;;;;605113;232;27336;-65
2022/07/18 01:56:52;;;;;;;1.92;1.52;;;16.60;54.60;;;;;;604892;237;26618;-65
2022/07/18 01:59:20;;;;;;;2.15;1.60;;;16.60;54.80;;;;;;605033;237;26652;-65
2022/07/18 02:01:48;;;;;;;2.53;1.80;;;16.50;54.90;;;;;;610345;235;26648;-65
2022/07/18 02:04:16;;;;;;;2.47;1.50;;;16.50;55.20;;;;;;612725;235;26585;-66
2022/07/18 02:06:44;;;;;;;2.03;1.50;;;16.40;55.10;;;;;;605149;235;26589;-66
2022/07/18 02:09:11;;;;;;;2.55;1.50;;;16.40;55.40;;;;;;601914;233;26590;-66
2022/07/18 02:11:39;;;;;;;2.25;1.48;;;16.30;55.40;;;;;;602217;236;26862;-65
2022/07/18 02:14:06;;;;;;;1.77;1.67;;;16.30;55.40;;;;;;601825;239;26815;-66
2022/07/18 02:16:33;;;;;;;1.77;1.62;;;16.30;55.60;;;;;;604276;236;26583;-65
2022/07/18 02:19:01;;;;;;;1.55;1.45;;;16.20;55.70;;;;;;604606;237;26846;-65
2022/07/18 02:21:28;;;;;;;1.62;1.52;;;16.20;56.00;;;;;;604568;238;26631;-66
2022/07/18 02:23:56;;;;;;;1.92;1.60;;;16.10;56.70;;;;;;604504;236;26835;-65
2022/07/18 02:26:23;;;;;;;2.37;1.67;;;16.00;56.20;;;;;;601723;238;26883;-66
2022/07/18 02:28:50;;;;;;;3.03;1.87;;;16.00;56.30;;;;;;601543;239;26661;-65
2022/07/18 02:31:19;;;;;;;1.87;1.67;;;15.90;56.60;;;;;;603563;238;26831;-66
2022/07/18 02:33:47;;;;;;;1.70;1.45;;;15.90;56.60;;;;;;604593;238;26582;-66
2022/07/18 02:36:15;;;;;;;2.53;1.40;;;15.80;56.90;;;;;;609748;235;26645;-66
2022/07/18 02:38:42;;;;;;;2.28;1.75;;;15.80;56.90;;;;;;612381;234;26623;-66
2022/07/18 02:41:09;;;;;;;2.12;1.30;;;15.90;57.10;;;;;;607222;234;26652;-66
2022/07/18 02:43:36;;;;;;;2.30;1.58;;;15.80;57.10;;;;;;604592;237;26824;-65
2022/07/18 02:46:04;;;;;;;2.22;1.80;;;15.70;57.20;;;;;;603651;235;26635;-65
2022/07/18 02:48:31;;;;;;;2.78;1.50;;;15.70;57.60;;;;;;601571;237;26999;-65
2022/07/18 02:50:58;;;;;;;1.73;1.50;;;15.60;57.90;;;;;;601587;238;26635;-65
2022/07/18 02:53:25;;;;;;;4.35;1.83;;;15.60;57.90;;;;;;602581;237;26600;-65
2022/07/18 02:55:52;;;;;;;2.35;1.40;;;15.50;58.00;;;;;;605691;235;26576;-65
2022/07/18 02:58:20;;;;;;;1.95;1.35;;;15.50;58.50;;;;;;610880;235;26984;-65
2022/07/18 03:00:48;;;;;;;1.60;1.50;;;15.50;58.50;;;;;;606184;235;26838;-65
2022/07/18 03:03:15;;;;;;;3.00;1.62;;;15.50;58.60;;;;;;609431;235;26677;-65
2022/07/18 03:05:42;;;;;;;1.80;1.30;;;15.50;58.50;;;;;;612997;234;26862;-65
2022/07/18 03:08:09;;;;;;;1.67;1.50;;;15.50;58.60;;;;;;608969;235;26635;-65
2022/07/18 03:10:36;;;;;;;1.58;1.48;;;15.50;58.90;;;;;;605115;237;27292;-65
2022/07/18 03:13:04;;;;;;;3.08;1.50;;;15.40;58.90;;;;;;604806;238;26611;-65
2022/07/18 03:15:31;;;;;;;1.73;1.42;;;15.40;59.00;;;;;;603635;236;26826;-65
2022/07/18 03:17:58;;;;;;;1.50;1.30;;;15.40;59.20;;;;;;605173;236;26552;-65
2022/07/18 03:20:25;;;;;;;1.83;1.60;;;15.40;59.30;;;;;;610146;236;26616;-65
2022/07/18 03:22:53;;;;;;;2.00;1.52;;;15.40;59.30;;;;;;609387;235;26652;-65
2022/07/18 03:25:21;;;;;;;1.48;1.27;;;15.40;59.60;;;;;;609420;236;26635;-65
2022/07/18 03:27:49;;;;;;;2.28;1.80;;;15.40;59.90;;;;;;604903;238;26555;-65
2022/07/18 03:30:17;;;;;;;1.73;1.62;;;15.30;60.20;;;;;;604514;236;26589;-66
2022/07/18 03:32:44;;;;;;;2.78;1.35;;;15.20;60.00;;;;;;604578;237;26613;-65
2022/07/18 03:35:11;;;;;;;2.25;1.48;;;15.30;60.30;;;;;;603626;236;26611;-65
2022/07/18 03:37:39;;;;;;;1.58;1.48;;;15.30;60.30;;;;;;601561;237;26846;-65
2022/07/18 03:40:07;;;;;;;2.35;1.70;;;15.20;61.00;;;;;;602057;236;26967;-65
2022/07/18 03:42:42;;;;;;;1.92;1.50;;;15.20;61.30;;;;;;601500;237;26680;-65
2022/07/18 03:45:09;;;;;;;2.53;1.55;;;15.30;61.50;;;;;;602321;233;26882;-65
2022/07/18 03:47:36;;;;;;;1.40;1.30;;;15.20;61.30;;;;;;601564;237;26670;-66
2022/07/18 03:50:04;;;;;;;2.45;1.60;;;15.20;61.50;;;;;;602500;236;26958;-65
2022/07/18 03:52:31;;;;;;;1.60;1.50;;;15.30;62.10;;;;;;606664;235;26639;-66
2022/07/18 03:55:01;;;;;;;1.45;1.35;;;15.30;62.10;;;;;;604646;238;26811;-65
2022/07/18 03:57:26;;;;;;;2.83;1.50;;;15.30;62.30;;;;;;602164;236;26588;-65
2022/07/18 03:59:53;;;;;;;1.77;1.48;;;15.30;62.30;;;;;;604833;236;26860;-65
2022/07/18 04:02:20;;;;;;;1.50;1.40;;;15.30;62.40;;;;;;601516;237;26656;-65
2022/07/18 04:04:47;;;;;;;1.75;1.65;;;15.30;62.60;;;;;;605980;234;26830;-65
2022/07/18 04:07:15;;;;;;;2.90;1.77;;;15.40;62.50;;;;;;605804;237;26598;-67
2022/07/18 04:09:42;;;;;;;2.53;1.42;;;15.40;62.30;;;;;;605586;236;26584;-68
2022/07/18 04:12:10;;;;;;;1.73;1.40;;;15.50;62.40;;;;;;611132;235;26640;-68
2022/07/18 04:14:38;;;;;;;1.60;1.50;;;15.60;62.30;;;;;;609068;235;26591;-67
2022/07/18 04:17:06;;;;;;;2.20;1.70;;;15.60;62.20;;;;;;602718;236;26585;-67
2022/07/18 04:19:34;;;;;;;2.05;1.83;;;15.60;62.80;;;;;;602009;239;26593;-67
2022/07/18 04:22:01;;;;;;;1.60;1.50;;;15.60;62.20;;;;;;602419;236;26849;-67
2022/07/18 04:24:28;;;;;;;1.75;1.60;;;15.70;62.10;;;;;;604752;238;26594;-67
2022/07/18 04:26:56;;;;;;;2.45;1.42;;;15.80;61.90;;;;;;604737;237;26811;-68
2022/07/18 04:29:23;;;;;;;2.28;1.50;;;15.80;61.90;;;;;;604875;237;26851;-68
2022/07/18 04:31:50;;;;;;;2.25;1.42;;;15.90;61.90;;;;;;608776;236;26659;-68
2022/07/18 04:34:18;;;;;;;2.70;1.60;;;15.90;61.50;;;;;;610226;235;26837;-68
2022/07/18 04:36:45;;;;;;;1.62;1.52;;;16.00;61.60;;;;;;605863;235;26626;-67
2022/07/18 04:39:12;;;;;;;2.12;1.60;;;16.00;61.30;;;;;;604925;237;27159;-68
2022/07/18 04:41:39;;;;;;;1.75;1.65;;;16.00;61.20;;;;;;604543;238;26602;-68
2022/07/18 04:44:06;;;;;;;1.50;1.40;;;16.10;61.30;;;;;;604612;237;26585;-68
2022/07/18 04:46:34;;;;;;;2.50;1.48;;;16.20;60.60;;;;;;604504;236;26583;-68
2022/07/18 04:49:02;;;;;;;1.60;1.50;;;16.20;60.60;;;;;;604645;237;26570;-68
2022/07/18 04:51:29;;;;;;;1.85;1.55;;;16.30;61.30;;;;;;601725;236;26887;-68
2022/07/18 04:53:56;;;;;;;2.62;1.35;;;16.40;60.60;;;;;;601568;238;26635;-68
2022/07/18 04:56:23;;;;;;;2.60;1.55;;;16.50;60.20;;;;;;601745;237;27304;-68
2022/07/18 04:58:50;;;;;;;2.67;1.50;;;16.50;59.80;;;;;;601535;238;26628;-68
2022/07/18 05:01:18;;;;;;;1.48;1.37;;;16.60;59.90;;;;;;604630;235;27003;-68
2022/07/18 05:03:45;;;;;;;2.37;1.80;;;16.60;59.80;;;;;;601613;237;26630;-68
2022/07/18 05:06:12;;;;;;;2.20;1.60;;;16.70;59.60;;;;;;606481;232;26842;-68
2022/07/18 05:08:39;;;;;;;3.17;1.40;;;16.90;59.40;;;;;;609899;236;26594;-68
2022/07/18 05:11:07;;;;;;;1.65;1.35;;;16.90;59.10;;;;;;607819;235;26869;-67
2022/07/18 05:13:34;;;;;;;2.58;1.70;;;17.10;58.80;;;;;;609699;236;26598;-67
2022/07/18 05:16:01;;;;;;;2.55;1.62;;;17.20;58.50;;;;;;605968;235;26834;-67
2022/07/18 05:18:28;;;;;;;1.40;1.30;;;17.30;58.80;;;;;;602897;237;26638;-67
2022/07/18 05:20:55;;;;;;;2.58;1.60;;;17.40;58.40;;;;;;602514;237;26826;-67
2022/07/18 05:23:24;;;;;;;3.47;1.58;;;17.50;58.10;;;;;;602350;237;26672;-68
2022/07/18 05:25:50;;;;;;;2.10;1.40;;;17.60;57.60;;;;;;605089;236;26990;-68
2022/07/18 05:28:18;;;;;;;4.15;1.52;;;17.60;57.60;;;;;;610506;235;26843;-68
2022/07/18 05:30:45;;;;;;;3.00;1.62;;;17.80;57.40;;;;;;607997;235;26605;-68
2022/07/18 05:33:12;;;;;;;2.20;1.30;;;17.90;57.30;;;;;;607555;235;27070;-68
2022/07/18 05:35:39;;;;;;;2.40;1.40;;;18.00;57.00;;;;;;607349;235;26661;-68
2022/07/18 05:38:07;;;;;;;1.60;1.50;;;18.30;56.50;;;;;;612686;235;27316;-68
2022/07/18 05:40:34;;;;;;;1.45;1.35;;;18.30;56.50;;;;;;608952;235;26960;-68
2022/07/18 05:43:02;;;;;;;1.60;1.50;;;18.40;56.20;;;;;;604875;237;26603;-68
2022/07/18 05:45:29;;;;;;;3.30;1.58;;;18.50;56.00;;;;;;604587;236;27130;-68
2022/07/18 05:47:57;;;;;;;2.33;1.40;;;18.80;55.60;;;;;;604881;237;26600;-68
2022/07/18 05:50:25;;;;;;;1.92;1.37;;;18.90;55.60;;;;;;604874;238;26638;-68
2022/07/18 05:52:52;;;;;;;1.75;1.65;;;18.90;56.10;;;;;;604624;237;26606;-68
2022/07/18 05:55:19;;;;;;;1.45;1.35;;;19.10;55.30;;;;;;604132;236;27141;-68
2022/07/18 05:57:46;;;;;;;1.50;1.40;;;19.30;55.00;;;;;;601540;238;26640;-68
2022/07/18 06:00:14;;;;;;;1.65;1.45;;;19.40;54.60;;;;;;602147;236;26776;-68
2022/07/18 06:02:42;;;;;;;1.55;1.45;;;19.50;54.30;;;;;;601540;237;26653;-68
2022/07/18 06:05:10;;;;;;;1.90;1.67;;;19.60;54.20;;;;;;602021;236;26896;-68
2022/07/18 06:07:38;;;;;;;1.50;1.40;;;19.90;53.90;;;;;;601644;237;26963;-68
2022/07/18 06:10:06;;;;;;;1.48;1.37;;;19.90;53.90;;;;;;601546;238;26912;-68
2022/07/18 06:12:33;;;;;;;2.00;1.50;;;20.00;53.40;;;;;;601504;239;26658;-68
2022/07/18 06:15:00;;;;;;;2.72;1.70;;;20.10;53.10;;;;;;604851;235;27264;-67
2022/07/18 06:17:29;;;;;;;5.10;1.62;;;20.30;53.20;;;;;;601722;235;26628;-67
2022/07/18 06:19:55;;;;;;;6.43;1.65;;;20.40;52.60;;;;;;605683;235;26585;-67
2022/07/18 06:22:23;;;;;;;3.00;1.73;;;20.50;52.60;;;;;;609276;235;26866;-67
2022/07/18 06:24:50;;;;;;;4.07;1.40;;;20.70;52.50;;;;;;606301;235;26668;-68
2022/07/18 06:27:17;;;;;;;2.65;1.55;;;20.70;52.30;;;;;;606975;234;26819;-68
2022/07/18 06:29:44;;;;;;;4.10;1.80;;;20.90;52.30;;;;;;604535;236;26643;-68
2022/07/18 06:32:12;;;;;;;1.52;1.42;;;21.00;52.00;;;;;;602944;235;26826;-68
2022/07/18 06:34:39;;;;;;;2.87;1.50;;;21.10;51.90;;;;;;611033;234;26547;-68
2022/07/18 06:37:06;;;;;;;7.60;1.60;;;21.20;51.90;;;;;;608229;235;27044;-68
2022/07/18 06:39:34;;;;;;;2.83;1.83;;;21.30;51.50;;;;;;609218;236;26568;-68
2022/07/18 06:42:01;;;;;;;2.03;1.42;;;21.20;51.30;;;;;;606424;236;26896;-68
2022/07/18 06:44:29;;;;;;;2.83;1.55;;;21.40;51.10;;;;;;602599;238;26580;-68
2022/07/18 06:46:57;;;;;;;3.42;1.50;;;21.60;50.90;;;;;;606246;236;26871;-68
2022/07/18 06:49:22;;;;;;;1.85;1.20;;;21.70;50.90;;;;;;601678;239;26586;-68
2022/07/18 06:51:49;;;;;;;3.90;1.37;;;21.60;50.40;;;;;;605664;236;26609;-68
2022/07/18 06:54:18;;;;;;;4.22;1.83;;;21.80;50.30;;;;;;602165;238;26606;-68
2022/07/18 06:56:45;;;;;;;1.50;1.35;;;21.80;50.10;;;;;;602375;236;26574;-68
2022/07/18 06:59:13;;;;;;;2.60;1.60;;;22.00;49.80;;;;;;601825;238;26603;-68
2022/07/18 07:01:41;;;;;;;3.35;1.73;;;22.20;49.60;;;;;;602591;236;26620;-68
2022/07/18 07:04:10;;;;;;;3.65;1.60;;;22.30;49.40;;;;;;604738;238;26661;-68
2022/07/18 07:06:38;;;;;;;1.30;1.20;;;22.40;48.70;;;;;;602600;236;26666;-68
2022/07/18 07:09:06;;;;;;;3.20;1.35;;;22.30;49.20;;;;;;606833;235;26589;-68
2022/07/18 07:11:33;;;;;;;1.10;1.00;;;22.30;48.60;;;;;;608457;235;26661;-67
2022/07/18 07:14:00;;;;;;;3.37;1.62;;;22.30;48.30;;;;;;602331;237;26615;-67
2022/07/18 07:16:28;;;;;;;3.28;1.20;;;22.50;47.70;;;;;;604459;237;26575;-68
2022/07/18 07:18:56;;;;;;;2.05;1.50;;;22.50;47.60;;;;;;606283;236;26579;-68
2022/07/18 07:21:24;;;;;;;3.15;1.87;;;22.70;47.90;;;;;;605726;236;26617;-68
2022/07/18 07:23:51;;;;;;;5.25;1.60;;;22.70;47.90;;;;;;603703;238;26582;-67
2022/07/18 07:26:18;;;;;;;4.22;1.55;;;22.80;47.30;;;;;;604176;236;26626;-68
2022/07/18 07:28:46;;;;;;;0.90;0.90;;;22.80;46.80;;;;;;603507;236;27301;-68
2022/07/18 07:31:13;;;;;;;1.50;1.40;;;22.90;47.00;;;;;;606287;236;26558;-67
2022/07/18 07:33:40;;;;;;;4.30;1.58;;;23.10;47.20;;;;;;603429;238;26814;-68
2022/07/18 07:36:08;;;;;;;3.40;1.55;;;23.10;46.40;;;;;;610852;235;27315;-66
2022/07/18 07:38:35;;;;;;;1.70;1.20;;;23.10;46.10;;;;;;601757;234;26854;-70
2022/07/18 07:41:02;;;;;;;2.47;1.17;;;23.10;46.50;;;;;;603868;235;26570;-67
2022/07/18 07:43:30;;;;;;;2.78;1.33;;;23.20;46.50;;;;;;603962;237;26918;-68
2022/07/18 07:45:58;;;;;;;4.72;1.27;;;23.30;46.20;;;;;;602380;237;26575;-66
2022/07/18 07:48:26;;;;;;;1.00;1.00;;;23.50;45.90;;;;;;604786;237;26583;-68
2022/07/18 07:50:54;;;;;;;1.12;1.00;;;23.50;45.70;;;;;;602922;237;26593;-68
2022/07/18 07:53:22;;;;;;;1.87;1.10;;;23.60;45.30;;;;;;605137;238;26673;-67
2022/07/18 07:55:49;;;;;;;1.27;1.17;;;23.50;45.10;;;;;;605132;232;26642;-65
2022/07/18 07:58:16;;;;;;;1.87;1.40;;;23.60;45.40;;;;;;604815;237;26740;-69
2022/07/18 08:00:43;;;;;;;4.30;1.55;;;23.80;45.90;;;;;;601768;232;26593;-68
2022/07/18 08:03:10;;;;;;;1.20;1.10;;;23.90;44.80;;;;;;601800;237;26849;-68
2022/07/18 08:05:38;;;;;;;1.00;1.00;;;23.80;44.60;;;;;;603608;237;26583;-69
2022/07/18 08:08:05;;;;;;;2.72;1.30;;;23.80;44.50;;;;;;602474;232;26815;-68
2022/07/18 08:10:32;;;;;;;1.30;1.20;;;23.90;44.50;;;;;;601910;235;26578;-70
2022/07/18 08:12:59;;;;;;;2.70;1.75;;;24.10;44.40;;;;;;605405;235;26848;-69
2022/07/18 08:15:26;;;;;;;1.02;0.88;;;24.30;43.90;;;;;;608404;234;26649;-68
2022/07/18 08:17:54;;;;;;;3.90;1.35;;;24.30;43.60;;;;;;602449;237;26831;-67
2022/07/18 08:20:21;;;;;;;5.30;1.23;;;24.50;43.30;;;;;;601482;239;26627;-70
2022/07/18 08:22:57;;;;;;;4.57;1.33;;;24.70;43.50;;;;;;601268;237;27212;-70
2022/07/18 08:25:24;;;;;;;3.55;1.52;;;25.10;43.60;;;;;;604132;235;26641;-69
2022/07/18 08:27:52;;;;;;;3.62;1.37;;;25.30;42.70;;;;;;605334;232;26665;-71
2022/07/18 08:30:20;;;;;;;1.52;1.40;;;25.40;42.30;;;;;;603993;236;26851;-69
2022/07/18 08:32:47;;;;;;;3.67;1.50;;;25.00;42.20;;;;;;602882;233;26678;-67
2022/07/18 08:35:14;;;;;;;9.57;1.90;;;24.90;41.50;;;;;;604228;236;26868;-69
2022/07/18 08:37:41;;;;;;;32.78;4.18;;;24.70;42.20;;;;;;604646;236;26655;-72
2022/07/18 08:40:09;;;;;;;16.52;2.45;;;24.70;41.70;;;;;;603579;236;26931;-71
2022/07/18 08:42:36;;;;;;;15.85;2.60;;;24.40;41.80;;;;;;604996;235;26652;-72
2022/07/18 08:45:05;;;;;;;24.27;3.37;;;24.40;42.20;;;;;;605685;235;26632;-72
2022/07/18 08:47:33;;;;;;;16.77;2.78;;;24.40;42.20;;;;;;604704;235;26863;-72
2022/07/18 08:50:01;;;;;;;7.72;1.70;;;24.40;42.40;;;;;;604184;234;26665;-71
2022/07/18 08:52:28;;;;;;;16.45;3.30;;;24.30;42.80;;;;;;605392;234;26631;-70
2022/07/18 08:54:56;;;;;;;24.37;3.85;;;24.20;42.70;;;;;;605282;234;26633;-76
2022/07/18 08:57:23;;;;;;;18.80;3.00;;;24.20;42.60;;;;;;606334;232;26629;-75
2022/07/18 08:59:51;;;;;;;23.12;3.05;;;24.50;42.50;;;;;;607095;232;26641;-75
2022/07/18 09:02:19;;;;;;;17.00;3.58;;;24.60;41.80;;;;;;604307;236;26596;-72
2022/07/18 09:04:46;;;;;;;14.45;3.03;;;24.60;41.80;;;;;;603112;236;26577;-71
2022/07/18 09:07:14;;;;;;;19.52;3.05;;;24.70;42.00;;;;;;605411;235;27120;-71
2022/07/18 09:09:42;;;;;;;16.50;3.12;;;24.50;41.80;;;;;;603596;235;26585;-72
2022/07/18 09:12:10;;;;;;;6.47;1.77;;;24.40;41.70;;;;;;605405;234;26605;-69
2022/07/18 09:14:38;;;;;;;5.80;1.90;;;24.50;42.50;;;;;;604305;232;26985;-70
2022/07/18 09:17:10;;;;;;;4.12;1.70;;;24.50;41.60;;;;;;603557;236;26802;-70
2022/07/18 09:19:37;;;;;;;3.60;1.80;;;24.50;42.00;;;;;;606644;235;26620;-70
2022/07/18 09:22:11;;;;;;;6.60;2.05;;;24.60;42.30;;;;;;606121;235;26653;-71
2022/07/18 09:24:58;;;;;;;5.78;2.05;;;24.70;42.60;;;;;;606180;233;26611;-71
2022/07/18 09:27:27;;;;;;;6.60;1.90;;;25.10;42.80;;;;;;603178;234;26602;-68
2022/07/18 09:30:20;;;;;;;2.78;2.03;;;25.10;42.40;;;;;;607799;236;26684;-70
2022/07/18 09:32:51;;;;;;;9.90;2.28;;;25.40;42.10;;;;;;608137;235;26654;-69
2022/07/18 09:35:18;;;;;;;4.25;1.77;;;25.80;41.20;;;;;;601343;237;26706;-71
2022/07/18 09:38:07;;;;;;;1.67;1.33;;;25.80;41.00;;;;;;609155;235;26660;-69
2022/07/18 09:40:36;;;;;;;1.95;1.40;;;25.80;40.60;;;;;;607311;235;26637;-69
2022/07/18 09:43:03;;;;;;;2.40;1.45;;;25.70;40.60;;;;;;605814;236;26855;-68
2022/07/18 09:45:31;;;;;;;8.88;2.17;;;25.80;40.70;;;;;;601349;239;26637;-68
2022/07/18 09:48:01;;;;;;;8.65;2.00;;;25.80;40.10;;;;;;603626;236;27283;-68
2022/07/18 09:50:28;;;;;;;5.07;1.75;;;25.60;39.80;;;;;;608549;236;26608;-68
2022/07/18 09:53:02;;;;;;;7.72;1.87;;;25.60;40.10;;;;;;603838;232;27236;-69
2022/07/18 09:55:30;;;;;;;3.75;2.10;;;25.60;40.00;;;;;;610537;235;26832;-69
2022/07/18 09:57:58;;;;;;;3.55;2.05;;;25.50;40.10;;;;;;602307;238;26843;-69
2022/07/18 10:00:25;;;;;;;7.62;2.00;;;25.60;40.20;;;;;;607053;236;26938;-69
2022/07/18 10:02:52;;;;;;;3.67;1.80;;;25.60;40.30;;;;;;607329;231;26648;-69
2022/07/18 10:05:19;;;;;;;5.45;1.85;;;25.70;40.70;;;;;;603271;236;26884;-69
2022/07/18 10:07:47;;;;;;;2.65;1.90;;;25.70;40.10;;;;;;604890;236;26585;-73
2022/07/18 10:10:15;;;;;;;5.32;2.37;;;25.70;40.30;;;;;;602378;237;26975;-73
2022/07/18 10:12:42;;;;;;;1.95;1.58;;;26.00;39.90;;;;;;605542;236;26652;-73
2022/07/18 10:15:10;;;;;;;1.30;1.20;;;26.10;39.90;;;;;;610310;236;26576;-73
2022/07/18 10:17:38;;;;;;;2.95;1.98;;;26.10;39.80;;;;;;602641;235;26581;-73
2022/07/18 10:20:06;;;;;;;3.03;2.10;;;26.10;39.80;;;;;;607713;235;26620;-73
2022/07/18 10:22:42;;;;;;;5.22;2.10;;;26.10;39.70;;;;;;606745;235;26661;-73
2022/07/18 10:25:07;;;;;;;4.50;2.22;;;26.50;39.00;;;;;;602789;232;26577;-73
2022/07/18 10:27:57;;;;;;;2.65;2.20;;;26.40;39.00;;;;;;606764;236;26643;-73
2022/07/18 10:30:42;;;;;;;3.72;1.90;;;26.40;39.10;;;;;;603069;238;26594;-73
2022/07/18 10:33:21;;;;;;;3.72;2.05;;;26.70;39.10;;;;;;604161;238;26611;-73
2022/07/18 10:36:00;;;;;;;1.35;1.25;;;27.00;38.70;;;;;;605016;233;26912;-73
2022/07/18 10:38:27;;;;;;;1.85;1.70;;;27.20;39.40;;;;;;611245;235;26870;-73
2022/07/18 10:41:02;;;;;;;2.40;1.60;;;27.30;38.20;;;;;;603632;235;26663;-73
2022/07/18 10:43:32;;;;;;;1.48;1.37;;;27.60;38.00;;;;;;603968;238;26843;-73
2022/07/18 10:45:59;;;;;;;3.00;1.85;;;27.60;37.70;;;;;;602230;238;26684;-73
2022/07/18 10:48:48;;;;;;;2.33;2.12;;;27.90;37.80;;;;;;603078;237;26887;-73
2022/07/18 10:51:16;;;;;;;1.15;1.15;;;27.90;37.00;;;;;;607299;236;26601;-73
2022/07/18 10:53:57;;;;;;;1.20;1.10;;;27.90;38.30;;;;;;602969;236;26632;-73
2022/07/18 10:56:59;;;;;;;1.70;1.48;;;27.90;38.20;;;;;;607254;234;26883;-73
2022/07/18 10:59:28;;;;;;;1.05;1.05;;;27.80;37.70;;;;;;605790;235;26636;-73
2022/07/18 11:01:54;;;;;;;1.77;1.37;;;27.70;37.10;;;;;;603683;238;26857;-73
2022/07/18 11:04:33;;;;;;;1.50;1.40;;;27.80;37.70;;;;;;602935;238;26646;-73
2022/07/18 11:07:06;;;;;;;1.62;1.52;;;27.80;37.80;;;;;;610264;235;26620;-73
2022/07/18 11:09:38;;;;;;;1.20;1.15;;;27.80;37.50;;;;;;607722;235;26584;-73
2022/07/18 11:12:17;;;;;;;1.08;1.08;;;27.90;37.30;;;;;;603709;237;26676;-73
2022/07/18 11:15:04;;;;;;;2.97;2.35;;;27.90;37.50;;;;;;603995;235;26588;-73
2022/07/18 11:17:43;;;;;;;2.10;1.90;;;27.60;37.10;;;;;;606215;232;26634;-73
2022/07/18 11:20:22;;;;;;;2.75;2.03;;;27.40;37.00;;;;;;607663;235;26605;-73
2022/07/18 11:22:49;;;;;;;2.53;1.80;;;27.30;36.70;;;;;;607219;235;26860;-73
2022/07/18 11:25:18;;;;;;;4.07;1.90;;;27.50;36.80;;;;;;609802;235;26639;-75
2022/07/18 11:27:45;;;;;;;1.62;1.52;;;27.80;37.30;;;;;;602605;238;26837;-69
2022/07/18 11:30:16;;;;;;;1.42;1.33;;;28.10;36.10;;;;;;603991;237;26626;-71
2022/07/18 11:32:44;;;;;;;6.82;2.65;;;28.70;36.40;;;;;;603679;237;26645;-70
2022/07/18 11:35:13;;;;;;;52.75;9.77;;;28.80;36.50;;;;;;602399;237;26614;-71
2022/07/18 11:37:47;;;;;;;34.95;9.20;;;28.90;37.20;;;;;;602099;237;26599;-71
2022/07/18 11:40:14;;;;;;;45.83;10.48;;;28.90;37.20;;;;;;604050;236;27292;-71
2022/07/18 11:42:41;;;;;;;7.68;3.10;;;29.10;36.10;;;;;;607848;236;26606;-74
2022/07/18 11:45:10;;;;;;;93.72;21.95;;;29.00;35.40;;;;;;603693;235;26629;-72
2022/07/18 11:47:37;;;;;;;81.15;21.65;;;29.00;35.30;;;;;;602217;237;26597;-76
2022/07/18 11:50:06;;;;;;;11.60;4.12;;;29.10;35.60;;;;;;603688;238;26577;-76
2022/07/18 11:52:34;;;;;;;60.83;18.37;;;29.40;34.60;;;;;;603142;237;26611;-76
2022/07/18 11:55:03;;;;;;;45.75;13.93;;;29.30;34.70;;;;;;602430;238;26710;-75
2022/07/18 11:57:30;;;;;;;57.10;15.82;;;29.30;35.00;;;;;;604258;238;26556;-74
2022/07/18 11:59:58;;;;;;;50.55;12.63;;;29.30;34.20;;;;;;601519;237;26623;-75
2022/07/18 12:02:37;;;;;;;30.58;9.90;;;29.10;34.50;;;;;;602891;237;26646;-71
2022/07/18 12:05:05;;;;;;;19.45;8.23;;;29.10;34.50;;;;;;602284;237;26645;-73
2022/07/18 12:07:32;;;;;;;17.17;6.45;;;29.00;34.60;;;;;;601864;237;26666;-73
2022/07/18 12:10:00;;;;;;;4.37;1.95;;;29.70;34.50;;;;;;605397;232;26634;-72
2022/07/18 12:12:28;;;;;;;2.65;1.98;;;29.70;34.50;;;;;;601313;232;26615;-72
2022/07/18 12:14:55;;;;;;;2.15;1.95;;;29.90;34.40;;;;;;603990;238;26591;-72
2022/07/18 12:17:22;;;;;;;3.90;2.20;;;30.20;34.30;;;;;;602283;236;26636;-73
2022/07/18 12:19:50;;;;;;;2.33;1.75;;;30.60;34.90;;;;;;609877;235;26862;-72
2022/07/18 12:22:17;;;;;;;2.60;2.40;;;31.20;34.20;;;;;;606370;235;26625;-73
2022/07/18 12:24:52;;;;;;;8.82;4.32;;;31.60;32.90;;;;;;603910;235;27093;-73
2022/07/18 12:27:21;;;;;;;4.60;3.28;;;31.50;32.80;;;;;;603035;237;26649;-73
2022/07/18 12:29:59;;;;;;;8.25;4.68;;;31.90;32.60;;;;;;607057;234;26640;-73
2022/07/18 12:32:26;;;;;;;2.00;1.90;;;32.10;31.80;;;;;;610045;234;26920;-74
2022/07/18 12:34:58;;;;;;;1.70;1.55;;;32.00;32.20;;;;;;605285;236;26591;-73
2022/07/18 12:37:26;;;;;;;7.45;4.62;;;32.10;32.30;;;;;;602491;238;26624;-74
2022/07/18 12:40:00;;;;;;;10.82;4.45;;;32.10;31.40;;;;;;606731;236;26616;-74
2022/07/18 12:42:30;;;;;;;8.25;4.35;;;32.10;31.70;;;;;;602937;236;26809;-75
2022/07/18 12:44:58;;;;;;;7.47;4.55;;;31.80;32.70;;;;;;603174;232;26559;-74
2022/07/18 12:47:25;;;;;;;6.28;3.42;;;32.00;32.50;;;;;;602146;237;26804;-74
2022/07/18 12:49:53;;;;;;;6.20;4.07;;;32.20;31.90;;;;;;604331;232;26555;-73
2022/07/18 12:52:21;;;;;;;3.92;3.53;;;32.80;31.30;;;;;;610106;235;26641;-74
2022/07/18 12:54:49;;;;;;;9.20;4.35;;;33.00;31.30;;;;;;609886;236;26658;-75